Rita Ann — WDG4670 — position and weather

sailwx.info

Track history (hours):
 
Tides and Currents Weather Stations Pressure Air Temp Water Temp Dewpoint Dewpoint Depression Visibility Wind Speed Wind Dir Waves Ship Positions

Rita Ann

Owner: D&S Marine Service, LLC, Houma, LA. More information available from US FCC via Universal Licensing System and Coast Guard Vessel Documentation Center.

Last reported at 2017-Nov-20 00:31 UTC. Time now 2017-Nov-20 16:57 UTC.
Position N 29°47' W 092°11'.

Length 205 m; draft 3 m.

Type: . MMSI: 367538940.

Date/timePositionNaut miles runAvg speedWind from/ knotsBaromVisibWave heightAir tempDewpointWater temp
2017-Nov-20 00:31N 29°47' W 092°11'0 0.0
2017-Nov-20 00:01N 29°47' W 092°11'0 0.0
2017-Nov-19 23:31N 29°47' W 092°11'1 2.0
2017-Nov-19 23:00N 29°47' W 092°10'2 3.5
2017-Nov-19 22:30N 29°47' W 092°08'2 3.7
2017-Nov-19 22:01N 29°48' W 092°06'1 2.7
2017-Nov-19 21:30N 29°48' W 092°05'1 2.7
2017-Nov-19 21:00N 29°49' W 092°03'2 3.3
2017-Nov-19 20:31N 29°49' W 092°02'  
2017-Nov-17 01:45N 29°46' W 091°36'1 4.8
2017-Nov-17 01:30N 29°46' W 091°38'15 3.7
2017-Nov-16 21:21N 29°51' W 091°54'2 4.4
2017-Nov-16 20:59N 29°51' W 091°56'2 4.5
2017-Nov-16 20:30N 29°50' W 091°59'2 4.6
2017-Nov-16 20:00N 29°49' W 092°01'2 4.5
2017-Nov-16 19:30N 29°49' W 092°04'2 4.6
2017-Nov-16 19:01N 29°48' W 092°06'2 5.0
2017-Nov-16 18:31N 29°47' W 092°09'2 4.0
2017-Nov-16 18:01N 29°47' W 092°11'2 3.1
2017-Nov-16 17:30N 29°47' W 092°13'1 2.3
2017-Nov-16 17:01N 29°48' W 092°14'0 0.2
2017-Nov-16 16:31N 29°48' W 092°14'0 0.2
2017-Nov-16 16:01N 29°48' W 092°14'2 3.8
2017-Nov-16 15:31N 29°49' W 092°16'2 3.9
2017-Nov-16 15:01N 29°50' W 092°18'1 1.8
2017-Nov-16 14:30N 29°50' W 092°19'0 0.3
2017-Nov-16 14:01N 29°50' W 092°19'0 0.1
2017-Nov-16 13:30N 29°50' W 092°19'0 0.0
2017-Nov-16 12:53N 29°50' W 092°19'0 0.0
2017-Nov-16 12:21N 29°50' W 092°19'0 0.0
2017-Nov-16 11:11N 29°50' W 092°19'0 0.0
2017-Nov-16 11:00N 29°50' W 092°19'0 0.0
2017-Nov-16 10:30N 29°50' W 092°19'0 1.0
2017-Nov-16 10:00N 29°50' W 092°19'1 2.9
2017-Nov-16 09:31N 29°51' W 092°21'3 3.8
2017-Nov-16 08:45N 29°53' W 092°23'13 3.9
2017-Nov-16 05:23N 29°56' W 092°38'22 3.9
2017-Nov-15 23:34N 29°56' W 093°04'0 4.3
2017-Nov-15 23:28N 29°56' W 093°05'2 4.3
2017-Nov-15 23:00N 29°56' W 093°07'2 4.2
2017-Nov-15 22:30N 29°56' W 093°10'2 4.4
2017-Nov-15 22:00N 29°58' W 093°11'2 4.4
2017-Nov-15 21:30N 29°59' W 093°13'2 3.7
2017-Nov-15 21:00N 30°01' W 093°14'2 4.0
2017-Nov-15 20:31N 30°02' W 093°16'2 4.0
2017-Nov-15 20:00N 30°04' W 093°16'2 4.2
2017-Nov-15 19:30N 30°06' W 093°18'1 2.6
2017-Nov-15 19:01N 30°05' W 093°20'0 0.6
2017-Nov-15 18:31N 30°05' W 093°20'0 0.0
2017-Nov-15 18:01N 30°05' W 093°20'2 3.2
2017-Nov-15 17:30N 30°04' W 093°21'2 4.8
2017-Nov-15 17:00N 30°04' W 093°24'3 5.0
2017-Nov-15 16:30N 30°04' W 093°27'2 3.8
2017-Nov-15 16:01N 30°04' W 093°29'3 4.9
2017-Nov-15 15:30N 30°04' W 093°32'2 4.9
2017-Nov-15 15:00N 30°04' W 093°34'2 4.3
2017-Nov-15 14:29N 30°04' W 093°37'3 4.7
2017-Nov-15 13:51N 30°04' W 093°40'71 3.0
2017-Nov-14 14:06N 29°30' W 094°53'1 7.3
2017-Nov-14 14:00N 29°31' W 094°53'4 7.4
2017-Nov-14 13:30N 29°34' W 094°55'4 7.4
2017-Nov-14 12:58N 29°38' W 094°58'4 7.6
2017-Nov-14 12:30N 29°41' W 094°59'6 6.9
2017-Nov-14 11:37N 29°45' W 095°04'1 7.1
2017-Nov-14 11:28N 29°46' W 095°05'2 0.5
2017-Nov-14 08:01N 29°47' W 095°04'0 0.0
2017-Nov-14 07:52N 29°47' W 095°04'1 2.2
2017-Nov-14 07:22N 29°46' W 095°05'1 3.9
2017-Nov-14 07:00N 29°45' W 095°04'3 4.6
2017-Nov-14 06:25N 29°44' W 095°01'2 4.2
2017-Nov-14 06:00N 29°42' W 095°00'2 4.8
2017-Nov-14 05:31N 29°40' W 094°59'3 5.4
2017-Nov-14 05:00N 29°38' W 094°58'3 5.3
2017-Nov-14 04:31N 29°35' W 094°56'3 5.3
2017-Nov-14 04:00N 29°33' W 094°55'3 5.2
2017-Nov-14 03:30N 29°31' W 094°53'128 3.1
2017-Nov-12 09:57N 29°54' W 092°28'2 4.2
2017-Nov-12 09:27N 29°53' W 092°25'3 3.9
2017-Nov-12 08:45N 29°52' W 092°22'1 3.9
2017-Nov-12 08:27N 29°51' W 092°22'4 3.5
2017-Nov-12 07:21N 29°50' W 092°18'9 3.0
2017-Nov-12 04:33N 29°47' W 092°08'2 4.4
2017-Nov-12 04:11N 29°48' W 092°06'5 4.5
2017-Nov-12 03:01N 29°50' W 092°01'0 4.6
2017-Nov-12 02:59N 29°50' W 092°01'3 4.4
2017-Nov-12 02:19N 29°50' W 091°57'  
Track history (hours):
 
Tides and Currents Weather Stations Pressure Air Temp Water Temp Dewpoint Dewpoint Depression Visibility Wind Speed Wind Dir Waves Ship Positions

Rita Ann

Owner: D&S Marine Service, LLC, Houma, LA. More information available from US FCC via Universal Licensing System and Coast Guard Vessel Documentation Center.

Last reported at 2017-Nov-20 00:31 UTC. Time now 2017-Nov-20 16:57 UTC.
Position N 29°47' W 092°11'.

Length 205 m; draft 3 m.

Type: . MMSI: 367538940.

Date/timePositionNaut miles runAvg speedWind from/ knotsBaromVisibWave heightAir tempDewpointWater temp
2017-Nov-20 00:31N 29°47' W 092°11'0 0.0
2017-Nov-20 00:01N 29°47' W 092°11'0 0.0
2017-Nov-19 23:31N 29°47' W 092°11'1 2.0
2017-Nov-19 23:00N 29°47' W 092°10'2 3.5
2017-Nov-19 22:30N 29°47' W 092°08'2 3.7
2017-Nov-19 22:01N 29°48' W 092°06'1 2.7
2017-Nov-19 21:30N 29°48' W 092°05'1 2.7
2017-Nov-19 21:00N 29°49' W 092°03'2 3.3
2017-Nov-19 20:31N 29°49' W 092°02'  
2017-Nov-17 01:45N 29°46' W 091°36'1 4.8
2017-Nov-17 01:30N 29°46' W 091°38'15 3.7
2017-Nov-16 21:21N 29°51' W 091°54'2 4.4
2017-Nov-16 20:59N 29°51' W 091°56'2 4.5
2017-Nov-16 20:30N 29°50' W 091°59'2 4.6
2017-Nov-16 20:00N 29°49' W 092°01'2 4.5
2017-Nov-16 19:30N 29°49' W 092°04'2 4.6
2017-Nov-16 19:01N 29°48' W 092°06'2 5.0
2017-Nov-16 18:31N 29°47' W 092°09'2 4.0
2017-Nov-16 18:01N 29°47' W 092°11'2 3.1
2017-Nov-16 17:30N 29°47' W 092°13'1 2.3
2017-Nov-16 17:01N 29°48' W 092°14'0 0.2
2017-Nov-16 16:31N 29°48' W 092°14'0 0.2
2017-Nov-16 16:01N 29°48' W 092°14'2 3.8
2017-Nov-16 15:31N 29°49' W 092°16'2 3.9
2017-Nov-16 15:01N 29°50' W 092°18'1 1.8
2017-Nov-16 14:30N 29°50' W 092°19'0 0.3
2017-Nov-16 14:01N 29°50' W 092°19'0 0.1
2017-Nov-16 13:30N 29°50' W 092°19'0 0.0
2017-Nov-16 12:53N 29°50' W 092°19'0 0.0
2017-Nov-16 12:21N 29°50' W 092°19'0 0.0
2017-Nov-16 11:11N 29°50' W 092°19'0 0.0
2017-Nov-16 11:00N 29°50' W 092°19'0 0.0
2017-Nov-16 10:30N 29°50' W 092°19'0 1.0
2017-Nov-16 10:00N 29°50' W 092°19'1 2.9
2017-Nov-16 09:31N 29°51' W 092°21'3 3.8
2017-Nov-16 08:45N 29°53' W 092°23'13 3.9
2017-Nov-16 05:23N 29°56' W 092°38'22 3.9
2017-Nov-15 23:34N 29°56' W 093°04'0 4.3
2017-Nov-15 23:28N 29°56' W 093°05'2 4.3
2017-Nov-15 23:00N 29°56' W 093°07'2 4.2
2017-Nov-15 22:30N 29°56' W 093°10'2 4.4
2017-Nov-15 22:00N 29°58' W 093°11'2 4.4
2017-Nov-15 21:30N 29°59' W 093°13'2 3.7
2017-Nov-15 21:00N 30°01' W 093°14'2 4.0
2017-Nov-15 20:31N 30°02' W 093°16'2 4.0
2017-Nov-15 20:00N 30°04' W 093°16'2 4.2
2017-Nov-15 19:30N 30°06' W 093°18'1 2.6
2017-Nov-15 19:01N 30°05' W 093°20'0 0.6
2017-Nov-15 18:31N 30°05' W 093°20'0 0.0
2017-Nov-15 18:01N 30°05' W 093°20'2 3.2
2017-Nov-15 17:30N 30°04' W 093°21'2 4.8
2017-Nov-15 17:00N 30°04' W 093°24'3 5.0
2017-Nov-15 16:30N 30°04' W 093°27'2 3.8
2017-Nov-15 16:01N 30°04' W 093°29'3 4.9
2017-Nov-15 15:30N 30°04' W 093°32'2 4.9
2017-Nov-15 15:00N 30°04' W 093°34'2 4.3
2017-Nov-15 14:29N 30°04' W 093°37'3 4.7
2017-Nov-15 13:51N 30°04' W 093°40'71 3.0
2017-Nov-14 14:06N 29°30' W 094°53'1 7.3
2017-Nov-14 14:00N 29°31' W 094°53'4 7.4
2017-Nov-14 13:30N 29°34' W 094°55'4 7.4
2017-Nov-14 12:58N 29°38' W 094°58'4 7.6
2017-Nov-14 12:30N 29°41' W 094°59'6 6.9
2017-Nov-14 11:37N 29°45' W 095°04'1 7.1
2017-Nov-14 11:28N 29°46' W 095°05'2 0.5
2017-Nov-14 08:01N 29°47' W 095°04'0 0.0
2017-Nov-14 07:52N 29°47' W 095°04'1 2.2
2017-Nov-14 07:22N 29°46' W 095°05'1 3.9
2017-Nov-14 07:00N 29°45' W 095°04'3 4.6
2017-Nov-14 06:25N 29°44' W 095°01'2 4.2
2017-Nov-14 06:00N 29°42' W 095°00'2 4.8
2017-Nov-14 05:31N 29°40' W 094°59'3 5.4
2017-Nov-14 05:00N 29°38' W 094°58'3 5.3
2017-Nov-14 04:31N 29°35' W 094°56'3 5.3
2017-Nov-14 04:00N 29°33' W 094°55'3 5.2
2017-Nov-14 03:30N 29°31' W 094°53'128 3.1
2017-Nov-12 09:57N 29°54' W 092°28'2 4.2
2017-Nov-12 09:27N 29°53' W 092°25'3 3.9
2017-Nov-12 08:45N 29°52' W 092°22'1 3.9
2017-Nov-12 08:27N 29°51' W 092°22'4 3.5
2017-Nov-12 07:21N 29°50' W 092°18'9 3.0
2017-Nov-12 04:33N 29°47' W 092°08'2 4.4
2017-Nov-12 04:11N 29°48' W 092°06'5 4.5
2017-Nov-12 03:01N 29°50' W 092°01'0 4.6
2017-Nov-12 02:59N 29°50' W 092°01'3 4.4
2017-Nov-12 02:19N 29°50' W 091°57'  

Dump ship's entire track history